Marble Canyon, AZ

10:40 PM MST on August 28, 2014 (GMT -0700)
Page Municipal | Change Station
CLOSE
Current Station
Airport
Location: Page,
Elevation: 4308 ft
Nearby Weather Stations

Elev 4308 ft 36.92 °N, 111.45 °W | Updated 47 minutes ago

Clear
Clear
76 °F
Feels Like 76 °F
N
4
Wind Variable Wind from South

Today
High -- | Low -- °F
--% Chance of Precip.
Yesterday
High -- | Low -- °F
Precip. -- in
5:54 AM 7:00 PM
Waxing Crescent, 12% visible
Pressure 29.92 in
Visibility 10.0 miles
Clouds Clear
Dew Point 41 °F
Humidity 29%
Rainfall 0.00 in
Snow Depth Not available.
UV 0 out of 12
Pollen 6.80 out of 12
Air Quality Not available.
Flu Activity Not available.
METAR KPGA 290453Z AUTO 17003KT 10SM CLR 24/05 A3010 RMK AO2 SLP130 T02440050

More Conditions Fewer Conditions

Pressure 29.92 in
Visibility 10.0 miles
Clouds Clear
Dew Point 41 °F
Humidity 29%
Rainfall 0.00 in
Snow Depth Not available.
UV 0 out of 12
Pollen 6.80 out of 12
Air Quality Not available.
Flu Activity Not available.
METAR KPGA 290453Z AUTO 17003KT 10SM CLR 24/05 A3010 RMK AO2 SLP130 T02440050

More Conditions Fewer Conditions

10-Day Weather Forecast

Almanac

Astronomy

Aug. 28, 2014 Rise Set
Actual Time 5:54 AM MST 7:00 PM MST
Civil Twilight 5:27 AM MST 7:27 PM MST
Nautical Twilight 4:55 AM MST 7:58 PM MST
Astronomical Twilight 4:22 AM MST 8:31 PM MST
Moon 8:44 AM MST (8/28) 8:32 PM MST (8/28)
Length of Visible Light 13h 59m
Length of Day
13h 06m
Tomorrow will be 2m 12s shorter.
Waxing Crescent, 12% of the Moon is Illuminated
Aug 29
Waxing Crescent
Sep 2
First Quarter
Sep 8
Full
Sep 15
Last Quarter
Sep 24
New

Yesterday's Extremes

State Highs State Lows

Community

WunderPhotos

Upload Photos

1,748,197 photos uploaded!

Nearby

Snow Depth

Station Depth Elevation
Snowslide Canyon 0 in 9730 ft
White Horse Lake 0 in 7180 ft
Workman Creek 1 in 6900 ft
Maverick Fork 0 in 9200 ft
Beaver Head 15 in 7990 ft

Earthquake Activity

City Distance Mag. Time & Date
No recent earthquake activity has been reported nearby.
Minimum magnitude displayed is 2.5.

Coastal Water Temperatures

Place Temperature
No Stations Reporting

Nearby Weather Stations